Laurence M. Gould — WCX7445 — position and weather

sailwx.info

Track history (hours):
 
Tides and Currents Weather Stations Pressure Air Temp Water Temp Dewpoint Dewpoint Depression Visibility Wind Speed Wind Dir Waves Ship Positions

Oceanographic research ship Laurence M. Gould (USA)

Detailed information on ship capabilities available from University of Delaware's Ocean Information Center.

Owner: Offshore Service Vessels LLC, Cut Off, LA. More information available from US FCC via Universal Licensing System and Coast Guard Vessel Documentation Center.

Last reported at 2017-Dec-11 16:00 UTC. Time now 2017-Dec-12 04:36 UTC.
Position S 57°54' W 060°42'.

Type: Ship. MMSI: 368138000.

Wind from 250 at 41 knots

Barometer 978.7 mb
Air temperature 2.8 ° C
Dewpoint -0.6 ° C
Water temperature 2.8 ° C

Date/timePositionNaut miles runAvg speedWind from/ knotsBaromVisibWave heightAir tempDewpointWater temp
2017-Dec-11 16:00S 57°54' W 060°42'10 9.6 250 / 41978.7 2.8-0.6 2.8
2017-Dec-11 15:00S 57°54' W 061°00'1111.3 250 / 41978.1 3.0-0.0 3.3
2017-Dec-11 14:00S 57°48' W 061°18'1111.3 260 / 45977.6 3.3-0.0 3.1
2017-Dec-11 13:00S 57°42' W 061°36'1111.3 260 / 46977.3 3.5 0.2 3.5
2017-Dec-11 12:00S 57°36' W 061°54'1111.4 260 / 47977.1 3.8 0.4 4.0
2017-Dec-11 11:00S 57°30' W 062°12'1111.4 260 / 48976.9 4.0 0.5 4.4
2017-Dec-11 10:00S 57°24' W 062°30'1111.4 260 / 49976.6 4.2 1.0 4.4
2017-Dec-11 09:00S 57°18' W 062°48'1111.4 260 / 51976.6 4.5 1.4 4.9
2017-Dec-11 08:00S 57°12' W 063°06'1111.5 270 / 52976.7 4.8 1.6 5.5
2017-Dec-11 07:00S 57°06' W 063°24'1111.5 270 / 52976.9 5.2 1.7 5.6
2017-Dec-11 06:00S 57°00' W 063°42'1211.5 270 / 50977.2 5.3 2.4 5.6
2017-Dec-11 05:00S 56°54' W 064°00'9 8.9 280 / 51977.3 5.3 2.7 5.5
2017-Dec-11 04:00S 56°48' W 064°12'9 8.9 280 / 52977.8 5.7 2.9 5.5
2017-Dec-11 03:00S 56°42' W 064°24'1413.7 290 / 51978.9 6.5 3.1 5.5
2017-Dec-11 02:00S 56°30' W 064°36'7 6.9 290 / 41981.1 7.2 2.9 5.6
2017-Dec-11 01:00S 56°24' W 064°42'1212.0 280 / 34983.7 7.7 3.2 5.7
2017-Dec-11 00:00S 56°12' W 064°42'1212.0 300 / 21986.3 7.0 4.5 5.7
2017-Dec-10 23:00S 56°00' W 064°42'6 6.0 320 / 27987.3 7.0 4.5 5.7
2017-Dec-10 22:00S 55°54' W 064°42'1212.0 330 / 31988.6 7.1 4.6 5.8
2017-Dec-10 21:00S 55°42' W 064°42'1212.0 330 / 32990.5 7.3 4.2 5.8
2017-Dec-10 20:00S 55°30' W 064°42'1212.5 340 / 27992.2 7.2 3.3 6.0
2017-Dec-10 19:00S 55°18' W 064°48'7 6.9 340 / 27994.1 6.7 2.7 6.0
2017-Dec-10 18:00S 55°12' W 064°54'1212.0 330 / 31996.4 7.0 2.2 6.4
2017-Dec-10 17:00S 55°00' W 064°54'1212.0 330 / 31998.2 7.4 3.3 7.9
2017-Dec-10 16:00S 54°48' W 064°54'6 6.0 320 / 271000.0 7.5 3.6 8.0
2017-Dec-10 15:00S 54°42' W 064°54'1212.0 320 / 211001.2 7.8 3.5 7.9
2017-Dec-10 14:00S 54°30' W 064°54'9 9.2 320 / 181001.9 7.5 2.7 7.9
2017-Dec-10 13:00S 54°24' W 065°06'7 6.9 310 / 151002.6 7.5 2.1 7.9
2017-Dec-10 12:00S 54°18' W 065°12'1212.1 300 / 111003.1 8.4 2.2 7.9
2017-Dec-10 11:00S 54°12' W 065°30'1413.9 310 / 41003.0 8.8 2.5 7.9
2017-Dec-10 10:00S 54°00' W 065°42'9 9.3 130 / 21002.6 8.3 3.2 7.8
2017-Dec-10 09:00S 53°54' W 065°54'1212.2 210 / 101002.3 6.8 2.7 7.7
2017-Dec-10 08:00S 53°48' W 066°12'1413.9 250 / 181001.6 6.7 2.6 7.6
2017-Dec-10 07:00S 53°36' W 066°24'9 9.3 260 / 211000.9 7.1 2.9 7.6
2017-Dec-10 06:00S 53°30' W 066°36'9 9.3 260 / 221000.6 7.3 2.9 7.8
2017-Dec-10 05:00S 53°24' W 066°48'9 9.3 260 / 221000.1 7.3 3.0 7.7
2017-Dec-10 04:00S 53°18' W 067°00'9 9.4 260 / 211000.0 7.2 2.9 7.7
2017-Dec-10 03:00S 53°12' W 067°12'1414.0 260 / 22999.8 7.6 3.2 7.6
2017-Dec-10 02:00S 53°00' W 067°24'9 9.4 250 / 22999.3 8.0 3.4 7.6
2017-Dec-10 01:00S 52°54' W 067°36'9 9.4 240 / 20998.7 8.3 2.8 7.6
2017-Dec-10 00:00S 52°48' W 067°48'1616.2 240 / 20998.3 9.0 1.7 3.6
2017-Dec-09 23:00S 52°36' W 068°06'9 9.4 270 / 19997.8 8.6 3.7-0.0
2017-Dec-09 22:00S 52°30' W 068°18'1312.5 270 / 20997.3 8.6 3.2
2017-Dec-09 21:00S 52°24' W 068°36'1312.5 270 / 18996.5 7.9 2.8
2017-Dec-09 20:00S 52°18' W 068°54'1111.0 250 / 17995.9 7.6 3.3
2017-Dec-09 19:00S 52°18' W 069°12'9 9.5 270 / 16995.4 7.8 4.0
2017-Dec-09 18:00S 52°24' W 069°24'7 7.0 290 / 13995.4 8.1 4.3
2017-Dec-09 17:00S 52°30' W 069°30'7 7.3 270 / 12995.7 7.9 3.7
2017-Dec-09 16:00S 52°30' W 069°42'5611.3 250 / 17996.2 7.3 2.7
2017-Dec-09 11:00S 53°06' W 070°54'0 0.0 320 / 8997.5 6.4 0.5
2017-Dec-09 10:00S 53°06' W 070°54'0 0.0 300 / 7997.2 5.9-0.0
2017-Dec-09 09:00S 53°06' W 070°54'0 0.0 270 / 12996.7 5.4 0.3
2017-Dec-09 08:00S 53°06' W 070°54'0 0.0 270 / 15996.5 5.1 0.6
2017-Dec-09 07:00S 53°06' W 070°54'0 0.0 280 / 18996.2 5.0 0.5
2017-Dec-09 06:00S 53°06' W 070°54'0 0.0 280 / 20996.1 4.9 0.3
2017-Dec-09 05:00S 53°06' W 070°54'0 0.0 270 / 18996.5 5.5 0.3
2017-Dec-09 04:00S 53°06' W 070°54'0 0.0 280 / 11996.4 5.9-0.1
2017-Dec-09 03:00S 53°06' W 070°54'0 0.0 260 / 11996.0 6.5 0.6
2017-Dec-09 02:00S 53°06' W 070°54'0 0.0 270 / 16995.3 7.5 2.1
2017-Dec-09 01:00S 53°06' W 070°54'0 0.0 270 / 7994.9 9.1 2.8
2017-Dec-09 00:00S 53°06' W 070°54'0 0.0 280 / 12994.5 9.8 3.8
2017-Dec-08 23:00S 53°06' W 070°54'0 0.0 280 / 14994.0 10.2 4.4
2017-Dec-08 22:00S 53°06' W 070°54'0 0.0 300 / 17993.4 11.2 3.5
2017-Dec-08 21:00S 53°06' W 070°54'0 0.0 310 / 18993.6 11.4 3.0
2017-Dec-08 20:00S 53°06' W 070°54'0 0.0 330 / 14994.2 11.0 3.2
2017-Dec-08 19:00S 53°06' W 070°54'0 0.0 340 / 13994.9 11.1 3.2
2017-Dec-08 18:00S 53°06' W 070°54'0 0.0 340 / 13995.7 10.8 2.8
2017-Dec-08 17:00S 53°06' W 070°54'0 0.0 330 / 13996.6 10.3 2.4
2017-Dec-08 16:00S 53°06' W 070°54'0 0.0 330 / 13997.6 9.6 2.5
2017-Dec-08 15:00S 53°06' W 070°54'0 0.0 330 / 11998.8 9.2 2.6
2017-Dec-08 14:00S 53°06' W 070°54'0 0.0 330 / 101000.0 9.3 2.5
2017-Dec-08 13:00S 53°06' W 070°54'0 0.0 320 / 91001.2 9.1 2.4
2017-Dec-08 12:00S 53°06' W 070°54'0 0.0 330 / 101002.0 8.4 2.4
2017-Dec-08 11:00S 53°06' W 070°54'0 0.0 310 / 131002.7 7.5 2.3
2017-Dec-08 10:00S 53°06' W 070°54'0 0.0 300 / 141003.5 7.2 2.1
2017-Dec-08 09:00S 53°06' W 070°54'0 0.0 300 / 141003.8 7.1 1.9
2017-Dec-08 08:00S 53°06' W 070°54'0 0.0 300 / 111004.4 7.1 2.0
2017-Dec-08 07:00S 53°06' W 070°54'0 0.0 340 / 61005.1 7.6 2.3
2017-Dec-08 06:00S 53°06' W 070°54'0 0.0 330 / 91005.8 7.6 1.7
2017-Dec-08 05:00S 53°06' W 070°54'0 0.0 320 / 61006.4 7.6 1.5
2017-Dec-08 04:00S 53°06' W 070°54'0 0.0 330 / 31006.8 7.4 1.5
2017-Dec-08 03:00S 53°06' W 070°54'0 0.0 280 / 71006.9 7.2 1.6
2017-Dec-08 02:00S 53°06' W 070°54'0 0.0 280 / 81006.7 7.4 1.7
2017-Dec-08 01:00S 53°06' W 070°54'0 0.0 270 / 111006.0 8.8 1.3
2017-Dec-08 00:00S 53°06' W 070°54'0 0.0 250 / 141005.5 10.1-0.0
2017-Dec-07 23:00S 53°06' W 070°54'0 0.0 250 / 191004.7 10.3-0.1
2017-Dec-07 22:00S 53°06' W 070°54'0 0.0 250 / 201003.9 10.9-0.0
2017-Dec-07 21:00S 53°06' W 070°54'0 0.0 250 / 211003.2 11.1 0.1
2017-Dec-07 20:00S 53°06' W 070°54'0 0.0 250 / 221002.1 11.0 1.1
2017-Dec-07 19:00S 53°06' W 070°54'0 0.0 230 / 171001.3 10.0 3.6
2017-Dec-07 18:00S 53°06' W 070°54'0 0.0 160 / 31000.6 7.1 5.2
2017-Dec-07 17:00S 53°06' W 070°54'0 0.0 150 / 8999.4 5.9 4.0
2017-Dec-07 16:00S 53°06' W 070°54'0 0.0 200 / 14997.6 9.1 4.3
2017-Dec-07 15:00S 53°06' W 070°54'0 0.0 260 / 12996.6 10.1 4.8
2017-Dec-07 14:00S 53°06' W 070°54'0 0.0 310 / 9996.1 8.7 5.7
2017-Dec-07 13:00S 53°06' W 070°54'0 0.0 010 / 9995.9 6.6 4.7
2017-Dec-07 12:00S 53°06' W 070°54'0 0.0 020 / 11996.0 5.4 3.5
2017-Dec-07 11:00S 53°06' W 070°54'0 0.0 020 / 11996.6 4.8 3.1
2017-Dec-07 10:00S 53°06' W 070°54'0 0.0 020 / 13997.5 4.3 2.5
2017-Dec-07 09:00S 53°06' W 070°54'0 0.0 020 / 14998.7 4.0 2.3
2017-Dec-07 08:00S 53°06' W 070°54'0 0.0 020 / 131000.4 3.5 1.7
2017-Dec-07 07:00S 53°06' W 070°54'0 0.0 020 / 111002.2 3.9 1.6
2017-Dec-07 06:00S 53°06' W 070°54'0 0.0 020 / 81003.9 4.4 1.0
2017-Dec-07 05:00S 53°06' W 070°54'0 0.0 350 / 71005.4 5.0 0.7
2017-Dec-07 04:00S 53°06' W 070°54'0 0.0 290 / 101006.5 5.9-0.9
2017-Dec-07 03:00S 53°06' W 070°54'0 0.0 270 / 61007.4 6.9-1.1
2017-Dec-07 02:00S 53°06' W 070°54'0 0.0 280 / 161007.8 6.8-0.0
2017-Dec-07 01:00S 53°06' W 070°54'0 0.0 260 / 131008.3 7.9 0.3
2017-Dec-07 00:00S 53°06' W 070°54'0 0.0 270 / 131009.3 8.3 0.3
2017-Dec-06 23:00S 53°06' W 070°54'0 0.0 270 / 151009.9 8.6 0.9
2017-Dec-06 22:00S 53°06' W 070°54'0 0.0 260 / 191009.9 9.5 1.0
2017-Dec-06 21:00S 53°06' W 070°54'0 0.0 260 / 171010.0 9.7 1.4
2017-Dec-06 20:00S 53°06' W 070°54'0 0.0 280 / 171009.9 9.8 1.5
2017-Dec-06 19:00S 53°06' W 070°54'0 0.0 270 / 181010.1 9.4 1.8
2017-Dec-06 18:00S 53°06' W 070°54'0 0.0 270 / 171009.6 9.7 1.3
2017-Dec-06 17:00S 53°06' W 070°54'0 0.0 260 / 171010.0 9.4-0.2
2017-Dec-06 16:00S 53°06' W 070°54'0 0.0 230 / 181010.0 8.5-0.5
2017-Dec-06 15:00S 53°06' W 070°54'0 0.0 250 / 171009.9 8.3-0.0
2017-Dec-06 14:00S 53°06' W 070°54'0 0.0 270 / 141010.0 7.8-0.3
2017-Dec-06 13:00S 53°06' W 070°54'0 0.0 270 / 171010.1 7.4-1.7
2017-Dec-06 12:00S 53°06' W 070°54'0 0.0 260 / 151010.0 7.2-2.9
2017-Dec-06 11:00S 53°06' W 070°54'0 0.0 260 / 121009.8 5.8-2.3
2017-Dec-06 10:00S 53°06' W 070°54'0 0.0 260 / 51009.2 5.4-2.4
2017-Dec-06 09:00S 53°06' W 070°54'0 0.0 270 / 71008.6 4.2-1.2
2017-Dec-06 08:00S 53°06' W 070°54'0 0.0 260 / 111008.0 4.7-1.5
2017-Dec-06 07:00S 53°06' W 070°54'0 0.0 260 / 81007.0 4.6-0.7
2017-Dec-06 06:00S 53°06' W 070°54'0 0.0 250 / 121006.0 5.8-1.8
2017-Dec-06 05:00S 53°06' W 070°54'0 0.0 290 / 51005.2 6.3-0.7
2017-Dec-06 04:00S 53°06' W 070°54'0 0.0 260 / 51004.7 6.2 1.1
2017-Dec-06 03:00S 53°06' W 070°54'0 0.0 240 / 131003.2 7.7 0.4
2017-Dec-06 02:00S 53°06' W 070°54'0 0.0 270 / 151001.7 8.6 0.6
2017-Dec-06 01:00S 53°06' W 070°54'0 0.0 260 / 161001.1 10.0 0.6
2017-Dec-06 00:00S 53°06' W 070°54'0 0.0 270 / 161000.4 11.0 3.3
2017-Dec-05 23:00S 53°06' W 070°54'0 0.0 270 / 22999.5 11.1 4.4
2017-Dec-05 22:00S 53°06' W 070°54'0 0.0 280 / 29998.1 12.5 3.8
2017-Dec-05 21:00S 53°06' W 070°54'0 0.0 280 / 31997.5 13.1 3.7
2017-Dec-05 20:00S 53°06' W 070°54'0 0.0 280 / 29997.5 12.9 5.8
2017-Dec-05 19:00S 53°06' W 070°54'0 0.0 290 / 28996.7 13.7 6.0
2017-Dec-05 18:00S 53°06' W 070°54'0 0.0 300 / 35996.4 14.2 5.6
2017-Dec-05 17:00S 53°06' W 070°54'0 0.0 300 / 34997.2 15.0 5.5
2017-Dec-05 16:00S 53°06' W 070°54'0 0.0 300 / 30998.3 15.0 5.4
2017-Dec-05 15:00S 53°06' W 070°54'0 0.0 310 / 221000.0 14.4 5.0
2017-Dec-05 14:00S 53°06' W 070°54'0 0.0 320 / 151001.2 14.3 5.8
2017-Dec-05 13:00S 53°06' W 070°54'0 0.0 360 / 101002.3 13.1 5.9
2017-Dec-05 12:00S 53°06' W 070°54'0 0.0 010 / 81003.3 12.4 6.0
2017-Dec-05 11:00S 53°06' W 070°54'0 0.0 310 / 111004.3 11.6 5.6
2017-Dec-05 10:00S 53°06' W 070°54'0 0.0 300 / 111004.6 11.1 5.5
2017-Dec-05 09:00S 53°06' W 070°54'0 0.0 320 / 91004.9 11.0 5.4
2017-Dec-05 08:00S 53°06' W 070°54'0 0.0 310 / 131005.1 11.3 5.0
2017-Dec-05 07:00S 53°06' W 070°54'0 0.0 310 / 121005.6 11.4 4.8
2017-Dec-05 06:00S 53°06' W 070°54'0 0.0 360 / 111005.8 11.8 4.5
2017-Dec-05 05:00S 53°06' W 070°54'0 0.0 010 / 71006.0 11.2 4.5
2017-Dec-05 04:00S 53°06' W 070°54'0 0.0 280 / 111006.2 10.6 4.5
2017-Dec-05 03:00S 53°06' W 070°54'0 0.0 280 / 151006.4 10.6 4.3
2017-Dec-05 02:00S 53°06' W 070°54'0 0.0 280 / 121006.3 10.8 4.7
2017-Dec-05 01:00S 53°06' W 070°54'0 0.0 310 / 101006.0 11.0 5.9
2017-Dec-05 00:00S 53°06' W 070°54'0 0.0 310 / 111005.7 11.4 6.1
2017-Dec-04 23:00S 53°06' W 070°54'0 0.0 300 / 111005.8 12.2 4.9
2017-Dec-04 22:00S 53°06' W 070°54'0 0.0 290 / 141005.8 12.9 4.7
2017-Dec-04 21:00S 53°06' W 070°54'0 0.0 280 / 201005.4 12.7 4.3
2017-Dec-04 20:00S 53°06' W 070°54'0 0.0 290 / 191005.0 13.4 4.4
2017-Dec-04 19:00S 53°06' W 070°54'0 0.0 270 / 211004.6 13.4 4.3
2017-Dec-04 18:00S 53°06' W 070°54'0 0.0 270 / 231004.2 13.3 4.0
2017-Dec-04 17:00S 53°06' W 070°54'0 0.0 270 / 191004.2 13.2 3.2
2017-Dec-04 16:00S 53°06' W 070°54'0 0.0 300 / 111004.5 12.8 2.8
2017-Dec-04 15:00S 53°06' W 070°54'0 0.0 270 / 161004.2 12.2 1.8
2017-Dec-04 14:00S 53°06' W 070°54'0 0.0 270 / 171004.0 12.7-0.1
2017-Dec-04 13:00S 53°06' W 070°54'0 0.0 260 / 181003.6 12.7 0.9
2017-Dec-04 12:00S 53°06' W 070°54'0 0.0 260 / 131003.7 12.3 4.6
2017-Dec-04 11:00S 53°06' W 070°54'0 0.0 270 / 141003.6 11.3 6.1
2017-Dec-04 10:00S 53°06' W 070°54'0 0.0 280 / 91003.5 11.1 7.1
2017-Dec-04 09:00S 53°06' W 070°54'0 0.0 280 / 91003.1 11.9 7.1
2017-Dec-04 08:00S 53°06' W 070°54'0 0.0 340 / 111003.1 12.7 7.0
2017-Dec-04 07:00S 53°06' W 070°54'0 0.0 350 / 91003.4 13.0 6.9
2017-Dec-04 06:00S 53°06' W 070°54'0 0.0 330 / 101004.1 13.5 6.8
2017-Dec-04 05:00S 53°06' W 070°54'0 0.0 350 / 71005.1 13.6 6.8
2017-Dec-04 04:00S 53°06' W 070°54'0 0.0 010 / 71005.8 13.7 6.6
2017-Dec-04 03:00S 53°06' W 070°54'0 0.0 020 / 71006.3 13.4 6.2
2017-Dec-04 02:00S 53°06' W 070°54'0 0.0 350 / 101006.8 14.0 5.8
2017-Dec-04 01:00S 53°06' W 070°54'0 0.0 290 / 111007.3 14.6 5.5
2017-Dec-04 00:00S 53°06' W 070°54'0 0.0 260 / 51007.9 15.0 5.8
2017-Dec-03 23:00S 53°06' W 070°54'0 0.0 310 / 71008.4 15.2 5.8
2017-Dec-03 22:00S 53°06' W 070°54'0 0.0 290 / 91009.1 15.6 4.2
2017-Dec-03 21:00S 53°06' W 070°54'0 0.0 310 / 71009.8 16.1 3.4
2017-Dec-03 20:00S 53°06' W 070°54'0 0.0 310 / 91010.0 16.7 2.3
2017-Dec-03 19:00S 53°06' W 070°54'0 0.0 300 / 101010.4 17.4 2.5
2017-Dec-03 18:00S 53°06' W 070°54'0 0.0 320 / 131011.0 18.5 2.9
2017-Dec-03 17:00S 53°06' W 070°54'0 0.0 310 / 101011.9 16.4 3.4
2017-Dec-03 16:00S 53°06' W 070°54'0 0.0 070 / 101012.8 11.2 4.9
2017-Dec-03 15:00S 53°06' W 070°54'0 0.0 060 / 91014.2 10.5 4.4
2017-Dec-03 14:00S 53°06' W 070°54'0 0.0 060 / 91015.3 9.8 2.8
2017-Dec-03 13:00S 53°06' W 070°54'0 0.0 040 / 111016.6 9.3 0.6
2017-Dec-03 12:00S 53°06' W 070°54'0 0.0 040 / 111017.9 8.2 0.2
2017-Dec-03 11:00S 53°06' W 070°54'0 0.0 040 / 91019.2 7.5 0.3
2017-Dec-03 10:00S 53°06' W 070°54'0 0.0 040 / 41020.2 7.5-0.1
2017-Dec-03 09:00S 53°06' W 070°54'0 0.0 010 / 41021.1 6.4-1.7
2017-Dec-03 08:00S 53°06' W 070°54'0 0.0 010 / 51022.1 6.2-1.1
2017-Dec-03 07:00S 53°06' W 070°54'0 0.0 350 / 61023.1 6.8-0.7
2017-Dec-03 06:00S 53°06' W 070°54'0 0.0 340 / 51023.7 6.7-1.1
2017-Dec-03 05:00S 53°06' W 070°54'0 0.0 300 / 61024.2 5.8-0.2
2017-Dec-03 04:00S 53°06' W 070°54'0 0.0 300 / 51024.8 6.5 0.1
2017-Dec-03 03:00S 53°06' W 070°54'0 0.0 290 / 31025.2 7.4 0.7
2017-Dec-03 02:00S 53°06' W 070°54'0 0.0 240 / 21025.5 8.3 0.7
2017-Dec-03 01:00S 53°06' W 070°54'0 0.0 200 / 41025.7 8.3 1.6
2017-Dec-03 00:00S 53°06' W 070°54'0 0.0 200 / 71025.9 8.6 1.5
2017-Dec-02 23:00S 53°06' W 070°54'0 0.0 200 / 61026.1 8.6 1.7
2017-Dec-02 22:00S 53°06' W 070°54'0 0.0 200 / 61026.1 8.8 2.3
2017-Dec-02 21:00S 53°06' W 070°54'0 0.0 210 / 41025.9 9.5 2.1
2017-Dec-02 20:00S 53°06' W 070°54'0 0.0 160 / 91025.4 8.7 1.6
2017-Dec-02 19:00S 53°06' W 070°54'0 0.0 140 / 131024.8 8.4 1.2
2017-Dec-02 18:00S 53°06' W 070°54'0 0.0 140 / 131024.4 8.2 1.2
2017-Dec-02 17:00S 53°06' W 070°54'0 0.0 130 / 121023.9 8.2-0.0
2017-Dec-02 16:00S 53°06' W 070°54'0 0.0 190 / 161023.1 8.6-2.1
2017-Dec-02 15:00S 53°06' W 070°54'0 0.0 200 / 171022.8 8.0-0.6
2017-Dec-02 14:00S 53°06' W 070°54'0 0.0 210 / 201022.0 8.0-1.7
2017-Dec-02 13:00S 53°06' W 070°54'0 0.0 210 / 181021.5 8.0-3.0
2017-Dec-02 12:00S 53°06' W 070°54'0 0.0 240 / 121021.3 8.5-1.8
2017-Dec-02 11:00S 53°06' W 070°54'0 0.0 240 / 101020.5 7.9-0.4
2017-Dec-02 10:00S 53°06' W 070°54'0 0.0 260 / 111019.4 7.3-0.4
2017-Dec-02 09:00S 53°06' W 070°54'0 0.0 250 / 141018.4 7.2 0.7
2017-Dec-02 08:00S 53°06' W 070°54'0 0.0 240 / 81017.5 7.5 2.7
2017-Dec-02 07:00S 53°06' W 070°54'0 0.0 270 / 61016.7 8.3 4.3
2017-Dec-02 06:00S 53°06' W 070°54'0 0.0 270 / 91015.9 8.9 4.5
2017-Dec-02 05:00S 53°06' W 070°54'0 0.0 280 / 121015.6 9.2 5.0
2017-Dec-02 04:00S 53°06' W 070°54'0 0.0 310 / 71015.7 9.8 5.1
2017-Dec-02 03:00S 53°06' W 070°54'0 0.0 320 / 61015.7 10.1 5.2
2017-Dec-02 02:00S 53°06' W 070°54'0 0.0 340 / 51015.6 10.3 5.0
2017-Dec-02 01:00S 53°06' W 070°54'0 0.0 280 / 151015.2 10.2 4.1
2017-Dec-02 00:00S 53°06' W 070°54'0 0.0 280 / 181014.8 11.5 3.8
2017-Dec-01 23:00S 53°06' W 070°54'0 0.0 280 / 151014.7 12.3 3.3
2017-Dec-01 22:00S 53°06' W 070°54'0 0.0 280 / 161014.5 13.0 3.1
2017-Dec-01 21:00S 53°06' W 070°54'0 0.0 290 / 171014.2 12.8 3.2
2017-Dec-01 20:00S 53°06' W 070°54'0 0.0 300 / 161014.0 13.2 2.4
2017-Dec-01 19:00S 53°06' W 070°54'0 0.0 300 / 161013.9 12.6 2.1
2017-Dec-01 18:00S 53°06' W 070°54'0 0.0 290 / 181013.9 12.3 1.9
2017-Dec-01 17:00S 53°06' W 070°54'   300 / 131014.6 12.1 1.3
Track history (hours):
 
Tides and Currents Weather Stations Pressure Air Temp Water Temp Dewpoint Dewpoint Depression Visibility Wind Speed Wind Dir Waves Ship Positions

Oceanographic research ship Laurence M. Gould (USA)

Detailed information on ship capabilities available from University of Delaware's Ocean Information Center.

Owner: Offshore Service Vessels LLC, Cut Off, LA. More information available from US FCC via Universal Licensing System and Coast Guard Vessel Documentation Center.

Last reported at 2017-Dec-11 16:00 UTC. Time now 2017-Dec-12 04:36 UTC.
Position S 57°54' W 060°42'.

Type: Ship. MMSI: 368138000.

Wind from 250 at 41 knots

Barometer 978.7 mb
Air temperature 2.8 ° C
Dewpoint -0.6 ° C
Water temperature 2.8 ° C

Date/timePositionNaut miles runAvg speedWind from/ knotsBaromVisibWave heightAir tempDewpointWater temp
2017-Dec-11 16:00S 57°54' W 060°42'10 9.6 250 / 41978.7 2.8-0.6 2.8
2017-Dec-11 15:00S 57°54' W 061°00'1111.3 250 / 41978.1 3.0-0.0 3.3
2017-Dec-11 14:00S 57°48' W 061°18'1111.3 260 / 45977.6 3.3-0.0 3.1
2017-Dec-11 13:00S 57°42' W 061°36'1111.3 260 / 46977.3 3.5 0.2 3.5
2017-Dec-11 12:00S 57°36' W 061°54'1111.4 260 / 47977.1 3.8 0.4 4.0
2017-Dec-11 11:00S 57°30' W 062°12'1111.4 260 / 48976.9 4.0 0.5 4.4
2017-Dec-11 10:00S 57°24' W 062°30'1111.4 260 / 49976.6 4.2 1.0 4.4
2017-Dec-11 09:00S 57°18' W 062°48'1111.4 260 / 51976.6 4.5 1.4 4.9
2017-Dec-11 08:00S 57°12' W 063°06'1111.5 270 / 52976.7 4.8 1.6 5.5
2017-Dec-11 07:00S 57°06' W 063°24'1111.5 270 / 52976.9 5.2 1.7 5.6
2017-Dec-11 06:00S 57°00' W 063°42'1211.5 270 / 50977.2 5.3 2.4 5.6
2017-Dec-11 05:00S 56°54' W 064°00'9 8.9 280 / 51977.3 5.3 2.7 5.5
2017-Dec-11 04:00S 56°48' W 064°12'9 8.9 280 / 52977.8 5.7 2.9 5.5
2017-Dec-11 03:00S 56°42' W 064°24'1413.7 290 / 51978.9 6.5 3.1 5.5
2017-Dec-11 02:00S 56°30' W 064°36'7 6.9 290 / 41981.1 7.2 2.9 5.6
2017-Dec-11 01:00S 56°24' W 064°42'1212.0 280 / 34983.7 7.7 3.2 5.7
2017-Dec-11 00:00S 56°12' W 064°42'1212.0 300 / 21986.3 7.0 4.5 5.7
2017-Dec-10 23:00S 56°00' W 064°42'6 6.0 320 / 27987.3 7.0 4.5 5.7
2017-Dec-10 22:00S 55°54' W 064°42'1212.0 330 / 31988.6 7.1 4.6 5.8
2017-Dec-10 21:00S 55°42' W 064°42'1212.0 330 / 32990.5 7.3 4.2 5.8
2017-Dec-10 20:00S 55°30' W 064°42'1212.5 340 / 27992.2 7.2 3.3 6.0
2017-Dec-10 19:00S 55°18' W 064°48'7 6.9 340 / 27994.1 6.7 2.7 6.0
2017-Dec-10 18:00S 55°12' W 064°54'1212.0 330 / 31996.4 7.0 2.2 6.4
2017-Dec-10 17:00S 55°00' W 064°54'1212.0 330 / 31998.2 7.4 3.3 7.9
2017-Dec-10 16:00S 54°48' W 064°54'6 6.0 320 / 271000.0 7.5 3.6 8.0
2017-Dec-10 15:00S 54°42' W 064°54'1212.0 320 / 211001.2 7.8 3.5 7.9
2017-Dec-10 14:00S 54°30' W 064°54'9 9.2 320 / 181001.9 7.5 2.7 7.9
2017-Dec-10 13:00S 54°24' W 065°06'7 6.9 310 / 151002.6 7.5 2.1 7.9
2017-Dec-10 12:00S 54°18' W 065°12'1212.1 300 / 111003.1 8.4 2.2 7.9
2017-Dec-10 11:00S 54°12' W 065°30'1413.9 310 / 41003.0 8.8 2.5 7.9
2017-Dec-10 10:00S 54°00' W 065°42'9 9.3 130 / 21002.6 8.3 3.2 7.8
2017-Dec-10 09:00S 53°54' W 065°54'1212.2 210 / 101002.3 6.8 2.7 7.7
2017-Dec-10 08:00S 53°48' W 066°12'1413.9 250 / 181001.6 6.7 2.6 7.6
2017-Dec-10 07:00S 53°36' W 066°24'9 9.3 260 / 211000.9 7.1 2.9 7.6
2017-Dec-10 06:00S 53°30' W 066°36'9 9.3 260 / 221000.6 7.3 2.9 7.8
2017-Dec-10 05:00S 53°24' W 066°48'9 9.3 260 / 221000.1 7.3 3.0 7.7
2017-Dec-10 04:00S 53°18' W 067°00'9 9.4 260 / 211000.0 7.2 2.9 7.7
2017-Dec-10 03:00S 53°12' W 067°12'1414.0 260 / 22999.8 7.6 3.2 7.6
2017-Dec-10 02:00S 53°00' W 067°24'9 9.4 250 / 22999.3 8.0 3.4 7.6
2017-Dec-10 01:00S 52°54' W 067°36'9 9.4 240 / 20998.7 8.3 2.8 7.6
2017-Dec-10 00:00S 52°48' W 067°48'1616.2 240 / 20998.3 9.0 1.7 3.6
2017-Dec-09 23:00S 52°36' W 068°06'9 9.4 270 / 19997.8 8.6 3.7-0.0
2017-Dec-09 22:00S 52°30' W 068°18'1312.5 270 / 20997.3 8.6 3.2
2017-Dec-09 21:00S 52°24' W 068°36'1312.5 270 / 18996.5 7.9 2.8
2017-Dec-09 20:00S 52°18' W 068°54'1111.0 250 / 17995.9 7.6 3.3
2017-Dec-09 19:00S 52°18' W 069°12'9 9.5 270 / 16995.4 7.8 4.0
2017-Dec-09 18:00S 52°24' W 069°24'7 7.0 290 / 13995.4 8.1 4.3
2017-Dec-09 17:00S 52°30' W 069°30'7 7.3 270 / 12995.7 7.9 3.7
2017-Dec-09 16:00S 52°30' W 069°42'5611.3 250 / 17996.2 7.3 2.7
2017-Dec-09 11:00S 53°06' W 070°54'0 0.0 320 / 8997.5 6.4 0.5
2017-Dec-09 10:00S 53°06' W 070°54'0 0.0 300 / 7997.2 5.9-0.0
2017-Dec-09 09:00S 53°06' W 070°54'0 0.0 270 / 12996.7 5.4 0.3
2017-Dec-09 08:00S 53°06' W 070°54'0 0.0 270 / 15996.5 5.1 0.6
2017-Dec-09 07:00S 53°06' W 070°54'0 0.0 280 / 18996.2 5.0 0.5
2017-Dec-09 06:00S 53°06' W 070°54'0 0.0 280 / 20996.1 4.9 0.3
2017-Dec-09 05:00S 53°06' W 070°54'0 0.0 270 / 18996.5 5.5 0.3
2017-Dec-09 04:00S 53°06' W 070°54'0 0.0 280 / 11996.4 5.9-0.1
2017-Dec-09 03:00S 53°06' W 070°54'0 0.0 260 / 11996.0 6.5 0.6
2017-Dec-09 02:00S 53°06' W 070°54'0 0.0 270 / 16995.3 7.5 2.1
2017-Dec-09 01:00S 53°06' W 070°54'0 0.0 270 / 7994.9 9.1 2.8
2017-Dec-09 00:00S 53°06' W 070°54'0 0.0 280 / 12994.5 9.8 3.8
2017-Dec-08 23:00S 53°06' W 070°54'0 0.0 280 / 14994.0 10.2 4.4
2017-Dec-08 22:00S 53°06' W 070°54'0 0.0 300 / 17993.4 11.2 3.5
2017-Dec-08 21:00S 53°06' W 070°54'0 0.0 310 / 18993.6 11.4 3.0
2017-Dec-08 20:00S 53°06' W 070°54'0 0.0 330 / 14994.2 11.0 3.2
2017-Dec-08 19:00S 53°06' W 070°54'0 0.0 340 / 13994.9 11.1 3.2
2017-Dec-08 18:00S 53°06' W 070°54'0 0.0 340 / 13995.7 10.8 2.8
2017-Dec-08 17:00S 53°06' W 070°54'0 0.0 330 / 13996.6 10.3 2.4
2017-Dec-08 16:00S 53°06' W 070°54'0 0.0 330 / 13997.6 9.6 2.5
2017-Dec-08 15:00S 53°06' W 070°54'0 0.0 330 / 11998.8 9.2 2.6
2017-Dec-08 14:00S 53°06' W 070°54'0 0.0 330 / 101000.0 9.3 2.5
2017-Dec-08 13:00S 53°06' W 070°54'0 0.0 320 / 91001.2 9.1 2.4
2017-Dec-08 12:00S 53°06' W 070°54'0 0.0 330 / 101002.0 8.4 2.4
2017-Dec-08 11:00S 53°06' W 070°54'0 0.0 310 / 131002.7 7.5 2.3
2017-Dec-08 10:00S 53°06' W 070°54'0 0.0 300 / 141003.5 7.2 2.1
2017-Dec-08 09:00S 53°06' W 070°54'0 0.0 300 / 141003.8 7.1 1.9
2017-Dec-08 08:00S 53°06' W 070°54'0 0.0 300 / 111004.4 7.1 2.0
2017-Dec-08 07:00S 53°06' W 070°54'0 0.0 340 / 61005.1 7.6 2.3
2017-Dec-08 06:00S 53°06' W 070°54'0 0.0 330 / 91005.8 7.6 1.7
2017-Dec-08 05:00S 53°06' W 070°54'0 0.0 320 / 61006.4 7.6 1.5
2017-Dec-08 04:00S 53°06' W 070°54'0 0.0 330 / 31006.8 7.4 1.5
2017-Dec-08 03:00S 53°06' W 070°54'0 0.0 280 / 71006.9 7.2 1.6
2017-Dec-08 02:00S 53°06' W 070°54'0 0.0 280 / 81006.7 7.4 1.7
2017-Dec-08 01:00S 53°06' W 070°54'0 0.0 270 / 111006.0 8.8 1.3
2017-Dec-08 00:00S 53°06' W 070°54'0 0.0 250 / 141005.5 10.1-0.0
2017-Dec-07 23:00S 53°06' W 070°54'0 0.0 250 / 191004.7 10.3-0.1
2017-Dec-07 22:00S 53°06' W 070°54'0 0.0 250 / 201003.9 10.9-0.0
2017-Dec-07 21:00S 53°06' W 070°54'0 0.0 250 / 211003.2 11.1 0.1
2017-Dec-07 20:00S 53°06' W 070°54'0 0.0 250 / 221002.1 11.0 1.1
2017-Dec-07 19:00S 53°06' W 070°54'0 0.0 230 / 171001.3 10.0 3.6
2017-Dec-07 18:00S 53°06' W 070°54'0 0.0 160 / 31000.6 7.1 5.2
2017-Dec-07 17:00S 53°06' W 070°54'0 0.0 150 / 8999.4 5.9 4.0
2017-Dec-07 16:00S 53°06' W 070°54'0 0.0 200 / 14997.6 9.1 4.3
2017-Dec-07 15:00S 53°06' W 070°54'0 0.0 260 / 12996.6 10.1 4.8
2017-Dec-07 14:00S 53°06' W 070°54'0 0.0 310 / 9996.1 8.7 5.7
2017-Dec-07 13:00S 53°06' W 070°54'0 0.0 010 / 9995.9 6.6 4.7
2017-Dec-07 12:00S 53°06' W 070°54'0 0.0 020 / 11996.0 5.4 3.5
2017-Dec-07 11:00S 53°06' W 070°54'0 0.0 020 / 11996.6 4.8 3.1
2017-Dec-07 10:00S 53°06' W 070°54'0 0.0 020 / 13997.5 4.3 2.5
2017-Dec-07 09:00S 53°06' W 070°54'0 0.0 020 / 14998.7 4.0 2.3
2017-Dec-07 08:00S 53°06' W 070°54'0 0.0 020 / 131000.4 3.5 1.7
2017-Dec-07 07:00S 53°06' W 070°54'0 0.0 020 / 111002.2 3.9 1.6
2017-Dec-07 06:00S 53°06' W 070°54'0 0.0 020 / 81003.9 4.4 1.0
2017-Dec-07 05:00S 53°06' W 070°54'0 0.0 350 / 71005.4 5.0 0.7
2017-Dec-07 04:00S 53°06' W 070°54'0 0.0 290 / 101006.5 5.9-0.9
2017-Dec-07 03:00S 53°06' W 070°54'0 0.0 270 / 61007.4 6.9-1.1
2017-Dec-07 02:00S 53°06' W 070°54'0 0.0 280 / 161007.8 6.8-0.0
2017-Dec-07 01:00S 53°06' W 070°54'0 0.0 260 / 131008.3 7.9 0.3
2017-Dec-07 00:00S 53°06' W 070°54'0 0.0 270 / 131009.3 8.3 0.3
2017-Dec-06 23:00S 53°06' W 070°54'0 0.0 270 / 151009.9 8.6 0.9
2017-Dec-06 22:00S 53°06' W 070°54'0 0.0 260 / 191009.9 9.5 1.0
2017-Dec-06 21:00S 53°06' W 070°54'0 0.0 260 / 171010.0 9.7 1.4
2017-Dec-06 20:00S 53°06' W 070°54'0 0.0 280 / 171009.9 9.8 1.5
2017-Dec-06 19:00S 53°06' W 070°54'0 0.0 270 / 181010.1 9.4 1.8
2017-Dec-06 18:00S 53°06' W 070°54'0 0.0 270 / 171009.6 9.7 1.3
2017-Dec-06 17:00S 53°06' W 070°54'0 0.0 260 / 171010.0 9.4-0.2
2017-Dec-06 16:00S 53°06' W 070°54'0 0.0 230 / 181010.0 8.5-0.5
2017-Dec-06 15:00S 53°06' W 070°54'0 0.0 250 / 171009.9 8.3-0.0
2017-Dec-06 14:00S 53°06' W 070°54'0 0.0 270 / 141010.0 7.8-0.3
2017-Dec-06 13:00S 53°06' W 070°54'0 0.0 270 / 171010.1 7.4-1.7
2017-Dec-06 12:00S 53°06' W 070°54'0 0.0 260 / 151010.0 7.2-2.9
2017-Dec-06 11:00S 53°06' W 070°54'0 0.0 260 / 121009.8 5.8-2.3
2017-Dec-06 10:00S 53°06' W 070°54'0 0.0 260 / 51009.2 5.4-2.4
2017-Dec-06 09:00S 53°06' W 070°54'0 0.0 270 / 71008.6 4.2-1.2
2017-Dec-06 08:00S 53°06' W 070°54'0 0.0 260 / 111008.0 4.7-1.5
2017-Dec-06 07:00S 53°06' W 070°54'0 0.0 260 / 81007.0 4.6-0.7
2017-Dec-06 06:00S 53°06' W 070°54'0 0.0 250 / 121006.0 5.8-1.8
2017-Dec-06 05:00S 53°06' W 070°54'0 0.0 290 / 51005.2 6.3-0.7
2017-Dec-06 04:00S 53°06' W 070°54'0 0.0 260 / 51004.7 6.2 1.1
2017-Dec-06 03:00S 53°06' W 070°54'0 0.0 240 / 131003.2 7.7 0.4
2017-Dec-06 02:00S 53°06' W 070°54'0 0.0 270 / 151001.7 8.6 0.6
2017-Dec-06 01:00S 53°06' W 070°54'0 0.0 260 / 161001.1 10.0 0.6
2017-Dec-06 00:00S 53°06' W 070°54'0 0.0 270 / 161000.4 11.0 3.3
2017-Dec-05 23:00S 53°06' W 070°54'0 0.0 270 / 22999.5 11.1 4.4
2017-Dec-05 22:00S 53°06' W 070°54'0 0.0 280 / 29998.1 12.5 3.8
2017-Dec-05 21:00S 53°06' W 070°54'0 0.0 280 / 31997.5 13.1 3.7
2017-Dec-05 20:00S 53°06' W 070°54'0 0.0 280 / 29997.5 12.9 5.8
2017-Dec-05 19:00S 53°06' W 070°54'0 0.0 290 / 28996.7 13.7 6.0
2017-Dec-05 18:00S 53°06' W 070°54'0 0.0 300 / 35996.4 14.2 5.6
2017-Dec-05 17:00S 53°06' W 070°54'0 0.0 300 / 34997.2 15.0 5.5
2017-Dec-05 16:00S 53°06' W 070°54'0 0.0 300 / 30998.3 15.0 5.4
2017-Dec-05 15:00S 53°06' W 070°54'0 0.0 310 / 221000.0 14.4 5.0
2017-Dec-05 14:00S 53°06' W 070°54'0 0.0 320 / 151001.2 14.3 5.8
2017-Dec-05 13:00S 53°06' W 070°54'0 0.0 360 / 101002.3 13.1 5.9
2017-Dec-05 12:00S 53°06' W 070°54'0 0.0 010 / 81003.3 12.4 6.0
2017-Dec-05 11:00S 53°06' W 070°54'0 0.0 310 / 111004.3 11.6 5.6
2017-Dec-05 10:00S 53°06' W 070°54'0 0.0 300 / 111004.6 11.1 5.5
2017-Dec-05 09:00S 53°06' W 070°54'0 0.0 320 / 91004.9 11.0 5.4
2017-Dec-05 08:00S 53°06' W 070°54'0 0.0 310 / 131005.1 11.3 5.0
2017-Dec-05 07:00S 53°06' W 070°54'0 0.0 310 / 121005.6 11.4 4.8
2017-Dec-05 06:00S 53°06' W 070°54'0 0.0 360 / 111005.8 11.8 4.5
2017-Dec-05 05:00S 53°06' W 070°54'0 0.0 010 / 71006.0 11.2 4.5
2017-Dec-05 04:00S 53°06' W 070°54'0 0.0 280 / 111006.2 10.6 4.5
2017-Dec-05 03:00S 53°06' W 070°54'0 0.0 280 / 151006.4 10.6 4.3
2017-Dec-05 02:00S 53°06' W 070°54'0 0.0 280 / 121006.3 10.8 4.7
2017-Dec-05 01:00S 53°06' W 070°54'0 0.0 310 / 101006.0 11.0 5.9
2017-Dec-05 00:00S 53°06' W 070°54'0 0.0 310 / 111005.7 11.4 6.1
2017-Dec-04 23:00S 53°06' W 070°54'0 0.0 300 / 111005.8 12.2 4.9
2017-Dec-04 22:00S 53°06' W 070°54'0 0.0 290 / 141005.8 12.9 4.7
2017-Dec-04 21:00S 53°06' W 070°54'0 0.0 280 / 201005.4 12.7 4.3
2017-Dec-04 20:00S 53°06' W 070°54'0 0.0 290 / 191005.0 13.4 4.4
2017-Dec-04 19:00S 53°06' W 070°54'0 0.0 270 / 211004.6 13.4 4.3
2017-Dec-04 18:00S 53°06' W 070°54'0 0.0 270 / 231004.2 13.3 4.0
2017-Dec-04 17:00S 53°06' W 070°54'0 0.0 270 / 191004.2 13.2 3.2
2017-Dec-04 16:00S 53°06' W 070°54'0 0.0 300 / 111004.5 12.8 2.8
2017-Dec-04 15:00S 53°06' W 070°54'0 0.0 270 / 161004.2 12.2 1.8
2017-Dec-04 14:00S 53°06' W 070°54'0 0.0 270 / 171004.0 12.7-0.1
2017-Dec-04 13:00S 53°06' W 070°54'0 0.0 260 / 181003.6 12.7 0.9
2017-Dec-04 12:00S 53°06' W 070°54'0 0.0 260 / 131003.7 12.3 4.6
2017-Dec-04 11:00S 53°06' W 070°54'0 0.0 270 / 141003.6 11.3 6.1
2017-Dec-04 10:00S 53°06' W 070°54'0 0.0 280 / 91003.5 11.1 7.1
2017-Dec-04 09:00S 53°06' W 070°54'0 0.0 280 / 91003.1 11.9 7.1
2017-Dec-04 08:00S 53°06' W 070°54'0 0.0 340 / 111003.1 12.7 7.0
2017-Dec-04 07:00S 53°06' W 070°54'0 0.0 350 / 91003.4 13.0 6.9
2017-Dec-04 06:00S 53°06' W 070°54'0 0.0 330 / 101004.1 13.5 6.8
2017-Dec-04 05:00S 53°06' W 070°54'0 0.0 350 / 71005.1 13.6 6.8
2017-Dec-04 04:00S 53°06' W 070°54'0 0.0 010 / 71005.8 13.7 6.6
2017-Dec-04 03:00S 53°06' W 070°54'0 0.0 020 / 71006.3 13.4 6.2
2017-Dec-04 02:00S 53°06' W 070°54'0 0.0 350 / 101006.8 14.0 5.8
2017-Dec-04 01:00S 53°06' W 070°54'0 0.0 290 / 111007.3 14.6 5.5
2017-Dec-04 00:00S 53°06' W 070°54'0 0.0 260 / 51007.9 15.0 5.8
2017-Dec-03 23:00S 53°06' W 070°54'0 0.0 310 / 71008.4 15.2 5.8
2017-Dec-03 22:00S 53°06' W 070°54'0 0.0 290 / 91009.1 15.6 4.2
2017-Dec-03 21:00S 53°06' W 070°54'0 0.0 310 / 71009.8 16.1 3.4
2017-Dec-03 20:00S 53°06' W 070°54'0 0.0 310 / 91010.0 16.7 2.3
2017-Dec-03 19:00S 53°06' W 070°54'0 0.0 300 / 101010.4 17.4 2.5
2017-Dec-03 18:00S 53°06' W 070°54'0 0.0 320 / 131011.0 18.5 2.9
2017-Dec-03 17:00S 53°06' W 070°54'0 0.0 310 / 101011.9 16.4 3.4
2017-Dec-03 16:00S 53°06' W 070°54'0 0.0 070 / 101012.8 11.2 4.9
2017-Dec-03 15:00S 53°06' W 070°54'0 0.0 060 / 91014.2 10.5 4.4
2017-Dec-03 14:00S 53°06' W 070°54'0 0.0 060 / 91015.3 9.8 2.8
2017-Dec-03 13:00S 53°06' W 070°54'0 0.0 040 / 111016.6 9.3 0.6
2017-Dec-03 12:00S 53°06' W 070°54'0 0.0 040 / 111017.9 8.2 0.2
2017-Dec-03 11:00S 53°06' W 070°54'0 0.0 040 / 91019.2 7.5 0.3
2017-Dec-03 10:00S 53°06' W 070°54'0 0.0 040 / 41020.2 7.5-0.1
2017-Dec-03 09:00S 53°06' W 070°54'0 0.0 010 / 41021.1 6.4-1.7
2017-Dec-03 08:00S 53°06' W 070°54'0 0.0 010 / 51022.1 6.2-1.1
2017-Dec-03 07:00S 53°06' W 070°54'0 0.0 350 / 61023.1 6.8-0.7
2017-Dec-03 06:00S 53°06' W 070°54'0 0.0 340 / 51023.7 6.7-1.1
2017-Dec-03 05:00S 53°06' W 070°54'0 0.0 300 / 61024.2 5.8-0.2
2017-Dec-03 04:00S 53°06' W 070°54'0 0.0 300 / 51024.8 6.5 0.1
2017-Dec-03 03:00S 53°06' W 070°54'0 0.0 290 / 31025.2 7.4 0.7
2017-Dec-03 02:00S 53°06' W 070°54'0 0.0 240 / 21025.5 8.3 0.7
2017-Dec-03 01:00S 53°06' W 070°54'0 0.0 200 / 41025.7 8.3 1.6
2017-Dec-03 00:00S 53°06' W 070°54'0 0.0 200 / 71025.9 8.6 1.5
2017-Dec-02 23:00S 53°06' W 070°54'0 0.0 200 / 61026.1 8.6 1.7
2017-Dec-02 22:00S 53°06' W 070°54'0 0.0 200 / 61026.1 8.8 2.3
2017-Dec-02 21:00S 53°06' W 070°54'0 0.0 210 / 41025.9 9.5 2.1
2017-Dec-02 20:00S 53°06' W 070°54'0 0.0 160 / 91025.4 8.7 1.6
2017-Dec-02 19:00S 53°06' W 070°54'0 0.0 140 / 131024.8 8.4 1.2
2017-Dec-02 18:00S 53°06' W 070°54'0 0.0 140 / 131024.4 8.2 1.2
2017-Dec-02 17:00S 53°06' W 070°54'0 0.0 130 / 121023.9 8.2-0.0
2017-Dec-02 16:00S 53°06' W 070°54'0 0.0 190 / 161023.1 8.6-2.1
2017-Dec-02 15:00S 53°06' W 070°54'0 0.0 200 / 171022.8 8.0-0.6
2017-Dec-02 14:00S 53°06' W 070°54'0 0.0 210 / 201022.0 8.0-1.7
2017-Dec-02 13:00S 53°06' W 070°54'0 0.0 210 / 181021.5 8.0-3.0
2017-Dec-02 12:00S 53°06' W 070°54'0 0.0 240 / 121021.3 8.5-1.8
2017-Dec-02 11:00S 53°06' W 070°54'0 0.0 240 / 101020.5 7.9-0.4
2017-Dec-02 10:00S 53°06' W 070°54'0 0.0 260 / 111019.4 7.3-0.4
2017-Dec-02 09:00S 53°06' W 070°54'0 0.0 250 / 141018.4 7.2 0.7
2017-Dec-02 08:00S 53°06' W 070°54'0 0.0 240 / 81017.5 7.5 2.7
2017-Dec-02 07:00S 53°06' W 070°54'0 0.0 270 / 61016.7 8.3 4.3
2017-Dec-02 06:00S 53°06' W 070°54'0 0.0 270 / 91015.9 8.9 4.5
2017-Dec-02 05:00S 53°06' W 070°54'0 0.0 280 / 121015.6 9.2 5.0
2017-Dec-02 04:00S 53°06' W 070°54'0 0.0 310 / 71015.7 9.8 5.1
2017-Dec-02 03:00S 53°06' W 070°54'0 0.0 320 / 61015.7 10.1 5.2
2017-Dec-02 02:00S 53°06' W 070°54'0 0.0 340 / 51015.6 10.3 5.0
2017-Dec-02 01:00S 53°06' W 070°54'0 0.0 280 / 151015.2 10.2 4.1
2017-Dec-02 00:00S 53°06' W 070°54'0 0.0 280 / 181014.8 11.5 3.8
2017-Dec-01 23:00S 53°06' W 070°54'0 0.0 280 / 151014.7 12.3 3.3
2017-Dec-01 22:00S 53°06' W 070°54'0 0.0 280 / 161014.5 13.0 3.1
2017-Dec-01 21:00S 53°06' W 070°54'0 0.0 290 / 171014.2 12.8 3.2
2017-Dec-01 20:00S 53°06' W 070°54'0 0.0 300 / 161014.0 13.2 2.4
2017-Dec-01 19:00S 53°06' W 070°54'0 0.0 300 / 161013.9 12.6 2.1
2017-Dec-01 18:00S 53°06' W 070°54'0 0.0 290 / 181013.9 12.3 1.9
2017-Dec-01 17:00S 53°06' W 070°54'   300 / 131014.6 12.1 1.3

Dump ship's entire track history